sensor_id;sensor_type;location;lat;lon;timestamp;pressure;altitude;pressure_sealevel;temperature;humidity
19843;BME280;10082;51.038;6.992;2023-02-28T00:00:38;112171.53;;;-144.33;100.00
19843;BME280;10082;51.038;6.992;2023-02-28T00:03:06;112171.53;;;-144.33;100.00
19843;BME280;10082;51.038;6.992;2023-02-28T00:05:33;112171.53;;;-144.33;100.00
19843;BME280;10082;51.038;6.992;2023-02-28T00:08:01;112171.53;;;-144.33;100.00
19843;BME280;10082;51.038;6.992;2023-02-28T00:10:30;112171.53;;;-144.33;100.00
19843;BME280;10082;51.038;6.992;2023-02-28T00:13:00;112171.53;;;-144.33;100.00
19843;BME280;10082;51.038;6.992;2023-02-28T00:15:29;112171.53;;;-144.33;100.00
19843;BME280;10082;51.038;6.992;2023-02-28T00:17:59;112171.53;;;-144.33;100.00
19843;BME280;10082;51.038;6.992;2023-02-28T00:20:26;112171.53;;;-144.33;100.00
19843;BME280;10082;51.038;6.992;2023-02-28T00:22:54;112171.53;;;-144.33;100.00
19843;BME280;10082;51.038;6.992;2023-02-28T00:25:23;112171.53;;;-144.33;100.00
19843;BME280;10082;51.038;6.992;2023-02-28T00:27:51;112171.53;;;-144.33;100.00
19843;BME280;10082;51.038;6.992;2023-02-28T00:30:19;112171.53;;;-144.33;100.00
19843;BME280;10082;51.038;6.992;2023-02-28T00:32:47;112171.53;;;-144.33;100.00
19843;BME280;10082;51.038;6.992;2023-02-28T00:35:16;112171.53;;;-144.33;100.00
19843;BME280;10082;51.038;6.992;2023-02-28T00:37:44;112171.53;;;-144.33;100.00
19843;BME280;10082;51.038;6.992;2023-02-28T00:40:12;112171.53;;;-144.33;100.00
19843;BME280;10082;51.038;6.992;2023-02-28T00:42:39;112171.53;;;-144.33;100.00
19843;BME280;10082;51.038;6.992;2023-02-28T00:45:07;112171.53;;;-144.33;100.00
19843;BME280;10082;51.038;6.992;2023-02-28T00:47:37;112171.53;;;-144.33;100.00
19843;BME280;10082;51.038;6.992;2023-02-28T00:50:05;112171.53;;;-144.33;100.00
19843;BME280;10082;51.038;6.992;2023-02-28T00:52:37;112171.53;;;-144.33;100.00
19843;BME280;10082;51.038;6.992;2023-02-28T00:55:05;112171.53;;;-144.33;100.00
19843;BME280;10082;51.038;6.992;2023-02-28T00:57:33;112171.53;;;-144.33;100.00
19843;BME280;10082;51.038;6.992;2023-02-28T01:00:00;112171.53;;;-144.33;100.00
19843;BME280;10082;51.038;6.992;2023-02-28T01:02:27;112171.53;;;-144.33;100.00
19843;BME280;10082;51.038;6.992;2023-02-28T01:04:54;112171.53;;;-144.33;100.00
19843;BME280;10082;51.038;6.992;2023-02-28T01:07:22;112171.53;;;-144.33;100.00
19843;BME280;10082;51.038;6.992;2023-02-28T01:09:51;112171.53;;;-144.33;100.00
19843;BME280;10082;51.038;6.992;2023-02-28T01:12:18;112171.53;;;-144.33;100.00
19843;BME280;10082;51.038;6.992;2023-02-28T01:14:46;112171.53;;;-144.33;100.00
19843;BME280;10082;51.038;6.992;2023-02-28T01:17:16;112171.53;;;-144.33;100.00
19843;BME280;10082;51.038;6.992;2023-02-28T01:19:44;112171.53;;;-144.33;100.00
19843;BME280;10082;51.038;6.992;2023-02-28T01:22:11;112171.53;;;-144.33;100.00
19843;BME280;10082;51.038;6.992;2023-02-28T01:24:41;112171.53;;;-144.33;100.00
19843;BME280;10082;51.038;6.992;2023-02-28T01:27:13;112171.53;;;-144.33;100.00
19843;BME280;10082;51.038;6.992;2023-02-28T01:29:40;112171.53;;;-144.33;100.00
19843;BME280;10082;51.038;6.992;2023-02-28T01:32:08;112171.53;;;-144.33;100.00
19843;BME280;10082;51.038;6.992;2023-02-28T01:34:36;112171.53;;;-144.33;100.00
19843;BME280;10082;51.038;6.992;2023-02-28T01:37:03;112171.53;;;-144.33;100.00
19843;BME280;10082;51.038;6.992;2023-02-28T01:39:33;112171.53;;;-144.33;100.00
19843;BME280;10082;51.038;6.992;2023-02-28T01:42:02;112171.53;;;-144.33;100.00
19843;BME280;10082;51.038;6.992;2023-02-28T01:44:58;112171.53;;;-144.33;100.00
19843;BME280;10082;51.038;6.992;2023-02-28T01:47:29;112171.53;;;-144.33;100.00
19843;BME280;10082;51.038;6.992;2023-02-28T01:50:01;112171.53;;;-144.33;100.00
19843;BME280;10082;51.038;6.992;2023-02-28T01:52:30;112171.53;;;-144.33;100.00
19843;BME280;10082;51.038;6.992;2023-02-28T01:54:59;112171.53;;;-144.33;100.00
19843;BME280;10082;51.038;6.992;2023-02-28T01:57:32;112171.53;;;-144.33;100.00
19843;BME280;10082;51.038;6.992;2023-02-28T02:00:09;112171.53;;;-144.33;100.00
19843;BME280;10082;51.038;6.992;2023-02-28T02:02:39;112171.53;;;-144.33;100.00
19843;BME280;10082;51.038;6.992;2023-02-28T02:05:10;112171.53;;;-144.33;100.00
19843;BME280;10082;51.038;6.992;2023-02-28T02:07:40;112171.53;;;-144.33;100.00
19843;BME280;10082;51.038;6.992;2023-02-28T02:10:12;112171.53;;;-144.33;100.00
19843;BME280;10082;51.038;6.992;2023-02-28T02:13:00;112171.53;;;-144.33;100.00
19843;BME280;10082;51.038;6.992;2023-02-28T02:15:33;112171.53;;;-144.33;100.00
19843;BME280;10082;51.038;6.992;2023-02-28T02:18:05;112171.53;;;-144.33;100.00
19843;BME280;10082;51.038;6.992;2023-02-28T02:20:50;112171.53;;;-144.33;100.00
19843;BME280;10082;51.038;6.992;2023-02-28T02:24:00;112171.53;;;-144.33;100.00
19843;BME280;10082;51.038;6.992;2023-02-28T02:26:55;112171.53;;;-144.33;100.00
19843;BME280;10082;51.038;6.992;2023-02-28T02:29:55;112171.53;;;-144.33;100.00
19843;BME280;10082;51.038;6.992;2023-02-28T02:33:06;112171.53;;;-144.33;100.00
19843;BME280;10082;51.038;6.992;2023-02-28T02:35:42;112171.53;;;-144.33;100.00
19843;BME280;10082;51.038;6.992;2023-02-28T02:38:19;112171.53;;;-144.33;100.00
19843;BME280;10082;51.038;6.992;2023-02-28T02:40:55;112171.53;;;-144.33;100.00
19843;BME280;10082;51.038;6.992;2023-02-28T02:43:29;112171.53;;;-144.33;100.00
19843;BME280;10082;51.038;6.992;2023-02-28T02:46:04;112171.53;;;-144.33;100.00
19843;BME280;10082;51.038;6.992;2023-02-28T02:48:34;112171.53;;;-144.33;100.00
19843;BME280;10082;51.038;6.992;2023-02-28T02:51:07;112171.53;;;-144.33;100.00
19843;BME280;10082;51.038;6.992;2023-02-28T02:53:43;112171.53;;;-144.33;100.00
19843;BME280;10082;51.038;6.992;2023-02-28T02:56:16;112171.53;;;-144.33;100.00
19843;BME280;10082;51.038;6.992;2023-02-28T02:58:48;112171.53;;;-144.33;100.00
19843;BME280;10082;51.038;6.992;2023-02-28T03:01:19;112171.53;;;-144.33;100.00
19843;BME280;10082;51.038;6.992;2023-02-28T03:03:56;112171.53;;;-144.33;100.00
19843;BME280;10082;51.038;6.992;2023-02-28T03:06:26;112171.53;;;-144.33;100.00
19843;BME280;10082;51.038;6.992;2023-02-28T03:08:53;112171.53;;;-144.33;100.00
19843;BME280;10082;51.038;6.992;2023-02-28T03:11:22;112171.53;;;-144.33;100.00
19843;BME280;10082;51.038;6.992;2023-02-28T03:14:13;112171.53;;;-144.33;100.00
19843;BME280;10082;51.038;6.992;2023-02-28T03:16:58;112171.53;;;-144.33;100.00
19843;BME280;10082;51.038;6.992;2023-02-28T03:19:35;112171.53;;;-144.33;100.00
19843;BME280;10082;51.038;6.992;2023-02-28T03:22:35;112171.53;;;-144.33;100.00
19843;BME280;10082;51.038;6.992;2023-02-28T03:25:08;112171.53;;;-144.33;100.00
19843;BME280;10082;51.038;6.992;2023-02-28T03:27:41;112171.53;;;-144.33;100.00
19843;BME280;10082;51.038;6.992;2023-02-28T03:30:17;112171.53;;;-144.33;100.00
19843;BME280;10082;51.038;6.992;2023-02-28T03:32:54;112171.53;;;-144.33;100.00
19843;BME280;10082;51.038;6.992;2023-02-28T03:35:26;112171.53;;;-144.33;100.00
19843;BME280;10082;51.038;6.992;2023-02-28T03:38:00;112171.53;;;-144.33;100.00
19843;BME280;10082;51.038;6.992;2023-02-28T03:40:33;112171.53;;;-144.33;100.00
19843;BME280;10082;51.038;6.992;2023-02-28T03:43:04;112171.53;;;-144.33;100.00
19843;BME280;10082;51.038;6.992;2023-02-28T03:45:36;112171.53;;;-144.33;100.00
19843;BME280;10082;51.038;6.992;2023-02-28T03:48:08;112171.53;;;-144.33;100.00
19843;BME280;10082;51.038;6.992;2023-02-28T03:50:41;112171.53;;;-144.33;100.00
19843;BME280;10082;51.038;6.992;2023-02-28T03:53:13;112171.53;;;-144.33;100.00
19843;BME280;10082;51.038;6.992;2023-02-28T03:55:44;112171.53;;;-144.33;100.00
19843;BME280;10082;51.038;6.992;2023-02-28T03:58:16;112171.53;;;-144.33;100.00
19843;BME280;10082;51.038;6.992;2023-02-28T04:00:50;112171.53;;;-144.33;100.00
19843;BME280;10082;51.038;6.992;2023-02-28T04:03:21;112171.53;;;-144.33;100.00
19843;BME280;10082;51.038;6.992;2023-02-28T04:05:52;112171.53;;;-144.33;100.00
19843;BME280;10082;51.038;6.992;2023-02-28T04:08:22;112171.53;;;-144.33;100.00
19843;BME280;10082;51.038;6.992;2023-02-28T04:10:54;112171.53;;;-144.33;100.00
19843;BME280;10082;51.038;6.992;2023-02-28T04:13:23;112171.53;;;-144.33;100.00
19843;BME280;10082;51.038;6.992;2023-02-28T04:15:50;112171.53;;;-144.33;100.00
19843;BME280;10082;51.038;6.992;2023-02-28T04:18:18;112171.53;;;-144.33;100.00
19843;BME280;10082;51.038;6.992;2023-02-28T04:20:46;112171.53;;;-144.33;100.00
19843;BME280;10082;51.038;6.992;2023-02-28T04:23:14;112171.53;;;-144.33;100.00
19843;BME280;10082;51.038;6.992;2023-02-28T04:25:42;112171.53;;;-144.33;100.00
19843;BME280;10082;51.038;6.992;2023-02-28T04:28:10;112171.53;;;-144.33;100.00
19843;BME280;10082;51.038;6.992;2023-02-28T04:30:37;112171.53;;;-144.33;100.00
19843;BME280;10082;51.038;6.992;2023-02-28T04:33:06;112171.53;;;-144.33;100.00
19843;BME280;10082;51.038;6.992;2023-02-28T04:35:33;112171.53;;;-144.33;100.00
19843;BME280;10082;51.038;6.992;2023-02-28T04:38:00;112171.53;;;-144.33;100.00
19843;BME280;10082;51.038;6.992;2023-02-28T04:40:27;112171.53;;;-144.33;100.00
19843;BME280;10082;51.038;6.992;2023-02-28T04:42:56;112171.53;;;-144.33;100.00
19843;BME280;10082;51.038;6.992;2023-02-28T04:45:24;112171.53;;;-144.33;100.00
19843;BME280;10082;51.038;6.992;2023-02-28T04:47:51;112171.53;;;-144.33;100.00
19843;BME280;10082;51.038;6.992;2023-02-28T04:50:19;112171.53;;;-144.33;100.00
19843;BME280;10082;51.038;6.992;2023-02-28T04:52:46;112171.53;;;-144.33;100.00
19843;BME280;10082;51.038;6.992;2023-02-28T04:55:13;112171.53;;;-144.33;100.00
19843;BME280;10082;51.038;6.992;2023-02-28T04:57:40;112171.53;;;-144.33;100.00
19843;BME280;10082;51.038;6.992;2023-02-28T05:00:11;112171.53;;;-144.33;100.00
19843;BME280;10082;51.038;6.992;2023-02-28T05:02:42;112171.53;;;-144.33;100.00
19843;BME280;10082;51.038;6.992;2023-02-28T05:05:09;112171.53;;;-144.33;100.00
19843;BME280;10082;51.038;6.992;2023-02-28T05:07:37;112171.53;;;-144.33;100.00
19843;BME280;10082;51.038;6.992;2023-02-28T05:10:05;112171.53;;;-144.33;100.00
19843;BME280;10082;51.038;6.992;2023-02-28T05:12:32;112171.53;;;-144.33;100.00
19843;BME280;10082;51.038;6.992;2023-02-28T05:14:59;112171.53;;;-144.33;100.00
19843;BME280;10082;51.038;6.992;2023-02-28T05:17:29;112171.53;;;-144.33;100.00
19843;BME280;10082;51.038;6.992;2023-02-28T05:19:56;112171.53;;;-144.33;100.00
19843;BME280;10082;51.038;6.992;2023-02-28T05:22:24;112171.53;;;-144.33;100.00
19843;BME280;10082;51.038;6.992;2023-02-28T05:24:51;112171.53;;;-144.33;100.00
19843;BME280;10082;51.038;6.992;2023-02-28T05:27:18;112171.53;;;-144.33;100.00
19843;BME280;10082;51.038;6.992;2023-02-28T05:29:45;112171.53;;;-144.33;100.00
19843;BME280;10082;51.038;6.992;2023-02-28T05:32:12;112171.53;;;-144.33;100.00
19843;BME280;10082;51.038;6.992;2023-02-28T05:34:41;112171.53;;;-144.33;100.00
19843;BME280;10082;51.038;6.992;2023-02-28T05:37:12;112171.53;;;-144.33;100.00
19843;BME280;10082;51.038;6.992;2023-02-28T05:39:39;112171.53;;;-144.33;100.00
19843;BME280;10082;51.038;6.992;2023-02-28T05:42:06;112171.53;;;-144.33;100.00
19843;BME280;10082;51.038;6.992;2023-02-28T05:44:36;112171.53;;;-144.33;100.00
19843;BME280;10082;51.038;6.992;2023-02-28T05:47:03;112171.53;;;-144.33;100.00
19843;BME280;10082;51.038;6.992;2023-02-28T05:49:30;112171.53;;;-144.33;100.00
19843;BME280;10082;51.038;6.992;2023-02-28T05:51:59;112171.53;;;-144.33;100.00
19843;BME280;10082;51.038;6.992;2023-02-28T05:54:26;112171.53;;;-144.33;100.00
19843;BME280;10082;51.038;6.992;2023-02-28T05:56:53;112171.53;;;-144.33;100.00
19843;BME280;10082;51.038;6.992;2023-02-28T05:59:20;112171.53;;;-144.33;100.00
19843;BME280;10082;51.038;6.992;2023-02-28T06:01:48;112171.53;;;-144.33;99.90
19843;BME280;10082;51.038;6.992;2023-02-28T06:04:17;112171.53;;;-144.33;99.31
19843;BME280;10082;51.038;6.992;2023-02-28T06:06:44;112171.53;;;-144.33;98.83
19843;BME280;10082;51.038;6.992;2023-02-28T06:09:14;112171.53;;;-144.33;98.34
19843;BME280;10082;51.038;6.992;2023-02-28T06:11:42;112171.53;;;-144.33;97.57
19843;BME280;10082;51.038;6.992;2023-02-28T06:14:14;112171.53;;;-144.33;97.19
19843;BME280;10082;51.038;6.992;2023-02-28T06:16:42;112171.53;;;-144.33;96.84
19843;BME280;10082;51.038;6.992;2023-02-28T06:19:10;112171.53;;;-144.33;97.59
19843;BME280;10082;51.038;6.992;2023-02-28T06:21:38;112171.53;;;-144.33;97.95
19843;BME280;10082;51.038;6.992;2023-02-28T06:24:07;112171.53;;;-144.33;98.65
19843;BME280;10082;51.038;6.992;2023-02-28T06:26:36;112171.53;;;-144.33;98.77
19843;BME280;10082;51.038;6.992;2023-02-28T06:29:03;112171.53;;;-144.33;99.77
19843;BME280;10082;51.038;6.992;2023-02-28T06:31:30;112171.53;;;-144.33;100.00
19843;BME280;10082;51.038;6.992;2023-02-28T06:33:57;112171.53;;;-144.33;100.00
19843;BME280;10082;51.038;6.992;2023-02-28T06:36:24;112171.53;;;-144.33;100.00
19843;BME280;10082;51.038;6.992;2023-02-28T06:38:51;112171.53;;;-144.33;99.97
19843;BME280;10082;51.038;6.992;2023-02-28T06:41:22;112171.53;;;-144.33;100.00
19843;BME280;10082;51.038;6.992;2023-02-28T06:43:51;112171.53;;;-144.33;99.38
19843;BME280;10082;51.038;6.992;2023-02-28T06:46:19;112171.53;;;-144.33;99.38
19843;BME280;10082;51.038;6.992;2023-02-28T06:48:46;112171.53;;;-144.33;98.97
19843;BME280;10082;51.038;6.992;2023-02-28T06:51:15;112171.53;;;-144.33;98.05
19843;BME280;10082;51.038;6.992;2023-02-28T06:53:43;112171.53;;;-144.33;97.66
19843;BME280;10082;51.038;6.992;2023-02-28T06:56:12;112171.53;;;-144.33;96.85
19843;BME280;10082;51.038;6.992;2023-02-28T06:58:40;112171.53;;;-144.33;96.06
19843;BME280;10082;51.038;6.992;2023-02-28T07:01:08;112171.53;;;-144.33;95.42
19843;BME280;10082;51.038;6.992;2023-02-28T07:03:36;112171.53;;;-144.33;94.55
19843;BME280;10082;51.038;6.992;2023-02-28T07:06:04;112171.53;;;-144.33;93.30
19843;BME280;10082;51.038;6.992;2023-02-28T07:08:32;112171.53;;;-144.33;92.30
19843;BME280;10082;51.038;6.992;2023-02-28T07:10:59;112171.53;;;-144.33;90.93
19843;BME280;10082;51.038;6.992;2023-02-28T07:13:26;112171.53;;;-144.33;89.58
19843;BME280;10082;51.038;6.992;2023-02-28T07:15:54;112171.53;;;-144.33;88.67
19843;BME280;10082;51.038;6.992;2023-02-28T07:18:23;112171.53;;;-144.33;87.25
19843;BME280;10082;51.038;6.992;2023-02-28T07:20:50;112171.53;;;-144.33;85.86
19843;BME280;10082;51.038;6.992;2023-02-28T07:23:17;112171.53;;;-144.33;84.64
19843;BME280;10082;51.038;6.992;2023-02-28T07:25:45;112171.53;;;-144.33;83.39
19843;BME280;10082;51.038;6.992;2023-02-28T07:28:13;112171.53;;;-144.33;81.79
19843;BME280;10082;51.038;6.992;2023-02-28T07:30:41;112171.53;;;-144.33;79.48
19843;BME280;10082;51.038;6.992;2023-02-28T07:33:09;112171.53;;;-144.33;77.25
19843;BME280;10082;51.038;6.992;2023-02-28T07:35:38;112171.53;;;-144.33;73.13
19843;BME280;10082;51.038;6.992;2023-02-28T07:38:05;112171.53;;;-144.33;69.86
19843;BME280;10082;51.038;6.992;2023-02-28T07:40:33;112171.53;;;-144.33;64.81
19843;BME280;10082;51.038;6.992;2023-02-28T07:43:00;112171.53;;;-144.33;61.30
19843;BME280;10082;51.038;6.992;2023-02-28T07:45:28;112171.53;;;-144.33;58.52
19843;BME280;10082;51.038;6.992;2023-02-28T07:47:57;112171.53;;;-144.33;55.39
19843;BME280;10082;51.038;6.992;2023-02-28T07:50:30;112171.53;;;-144.33;53.90
19843;BME280;10082;51.038;6.992;2023-02-28T07:52:59;112171.53;;;-144.33;50.18
19843;BME280;10082;51.038;6.992;2023-02-28T07:55:26;112171.53;;;-144.33;48.26
19843;BME280;10082;51.038;6.992;2023-02-28T07:57:53;112171.53;;;-144.33;46.65
19843;BME280;10082;51.038;6.992;2023-02-28T08:00:22;112171.53;;;-144.33;45.67
19843;BME280;10082;51.038;6.992;2023-02-28T08:02:49;112171.53;;;-144.33;44.55
19843;BME280;10082;51.038;6.992;2023-02-28T08:05:16;112171.53;;;-144.33;43.84
19843;BME280;10082;51.038;6.992;2023-02-28T08:07:44;112171.53;;;-144.33;42.88
19843;BME280;10082;51.038;6.992;2023-02-28T08:10:12;112171.53;;;-144.33;42.75
19843;BME280;10082;51.038;6.992;2023-02-28T08:12:39;112171.53;;;-144.33;42.96
19843;BME280;10082;51.038;6.992;2023-02-28T08:15:08;112171.53;;;-144.33;42.29
19843;BME280;10082;51.038;6.992;2023-02-28T08:17:35;112171.53;;;-144.33;42.32
19843;BME280;10082;51.038;6.992;2023-02-28T08:20:02;112171.53;;;-144.33;42.72
19843;BME280;10082;51.038;6.992;2023-02-28T08:22:30;112171.53;;;-144.33;41.78
19843;BME280;10082;51.038;6.992;2023-02-28T08:24:57;112171.53;;;-144.33;42.57
19843;BME280;10082;51.038;6.992;2023-02-28T08:27:26;112171.53;;;-144.33;42.71
19843;BME280;10082;51.038;6.992;2023-02-28T08:29:54;112171.53;;;-144.33;41.51
19843;BME280;10082;51.038;6.992;2023-02-28T08:32:21;112171.53;;;-144.33;41.43
19843;BME280;10082;51.038;6.992;2023-02-28T08:34:49;112171.53;;;-144.33;41.55
19843;BME280;10082;51.038;6.992;2023-02-28T08:37:16;112171.53;;;-144.33;41.38
19843;BME280;10082;51.038;6.992;2023-02-28T08:39:44;112171.53;;;-144.33;41.17
19843;BME280;10082;51.038;6.992;2023-02-28T08:42:11;112171.53;;;-144.33;40.52
19843;BME280;10082;51.038;6.992;2023-02-28T08:44:40;112171.53;;;-144.33;40.69
19843;BME280;10082;51.038;6.992;2023-02-28T08:47:07;112171.53;;;-144.33;39.44
19843;BME280;10082;51.038;6.992;2023-02-28T08:49:35;112171.53;;;-144.33;40.00
19843;BME280;10082;51.038;6.992;2023-02-28T08:52:03;112171.53;;;-144.33;40.38
19843;BME280;10082;51.038;6.992;2023-02-28T08:54:30;112171.53;;;-144.33;39.44
19843;BME280;10082;51.038;6.992;2023-02-28T08:57:00;112171.53;;;-144.33;38.99
19843;BME280;10082;51.038;6.992;2023-02-28T08:59:27;112171.53;;;-144.33;38.25
19843;BME280;10082;51.038;6.992;2023-02-28T09:01:56;112171.53;;;-144.33;38.29
19843;BME280;10082;51.038;6.992;2023-02-28T09:04:23;112171.53;;;-144.33;38.20
19843;BME280;10082;51.038;6.992;2023-02-28T09:06:51;112171.53;;;-144.33;37.98
19843;BME280;10082;51.038;6.992;2023-02-28T09:09:18;112171.53;;;-144.33;38.14
19843;BME280;10082;51.038;6.992;2023-02-28T09:11:45;112171.53;;;-144.33;37.59
19843;BME280;10082;51.038;6.992;2023-02-28T09:14:12;112171.53;;;-144.33;37.57
19843;BME280;10082;51.038;6.992;2023-02-28T09:16:39;112171.53;;;-144.33;37.45
19843;BME280;10082;51.038;6.992;2023-02-28T09:19:13;112171.53;;;-144.33;36.59
19843;BME280;10082;51.038;6.992;2023-02-28T09:21:41;112171.53;;;-144.33;36.78
19843;BME280;10082;51.038;6.992;2023-02-28T09:24:08;112171.53;;;-144.33;37.79
19843;BME280;10082;51.038;6.992;2023-02-28T09:26:37;112171.53;;;-144.33;37.95
19843;BME280;10082;51.038;6.992;2023-02-28T09:29:04;112171.53;;;-144.33;38.09
19843;BME280;10082;51.038;6.992;2023-02-28T09:31:32;112171.53;;;-144.33;37.71
19843;BME280;10082;51.038;6.992;2023-02-28T09:33:59;112171.53;;;-144.33;38.10
19843;BME280;10082;51.038;6.992;2023-02-28T09:36:28;112171.53;;;-144.33;37.43
19843;BME280;10082;51.038;6.992;2023-02-28T09:38:55;112171.53;;;-144.33;37.35
19843;BME280;10082;51.038;6.992;2023-02-28T09:44:48;112171.53;;;-144.33;36.91
19843;BME280;10082;51.038;6.992;2023-02-28T09:47:24;112171.53;;;-144.33;37.31
19843;BME280;10082;51.038;6.992;2023-02-28T09:49:53;112171.53;;;-144.33;38.23
19843;BME280;10082;51.038;6.992;2023-02-28T09:52:28;112171.53;;;-144.33;38.00
19843;BME280;10082;51.038;6.992;2023-02-28T09:55:00;112171.53;;;-144.33;36.10
19843;BME280;10082;51.038;6.992;2023-02-28T09:57:33;112171.53;;;-144.33;35.63
19843;BME280;10082;51.038;6.992;2023-02-28T10:00:13;112171.53;;;-144.33;35.46
19843;BME280;10082;51.038;6.992;2023-02-28T10:02:54;112171.53;;;-144.33;34.57
19843;BME280;10082;51.038;6.992;2023-02-28T10:05:28;112171.53;;;-144.33;34.32
19843;BME280;10082;51.038;6.992;2023-02-28T10:08:03;112171.53;;;-144.33;34.73
19843;BME280;10082;51.038;6.992;2023-02-28T10:10:38;112171.53;;;-144.33;34.97
19843;BME280;10082;51.038;6.992;2023-02-28T10:13:14;112171.53;;;-144.33;35.08
19843;BME280;10082;51.038;6.992;2023-02-28T10:15:45;112171.53;;;-144.33;34.66
19843;BME280;10082;51.038;6.992;2023-02-28T10:18:16;112171.53;;;-144.33;34.64
19843;BME280;10082;51.038;6.992;2023-02-28T10:20:47;112171.53;;;-144.33;34.85
19843;BME280;10082;51.038;6.992;2023-02-28T10:23:20;112171.53;;;-144.33;35.82
19843;BME280;10082;51.038;6.992;2023-02-28T10:25:53;112171.53;;;-144.33;35.63
19843;BME280;10082;51.038;6.992;2023-02-28T10:28:21;112171.53;;;-144.33;35.68
19843;BME280;10082;51.038;6.992;2023-02-28T10:30:50;112171.53;;;-144.33;35.84
19843;BME280;10082;51.038;6.992;2023-02-28T10:33:22;112171.53;;;-144.33;35.65
19843;BME280;10082;51.038;6.992;2023-02-28T10:35:50;112171.53;;;-144.33;35.44
19843;BME280;10082;51.038;6.992;2023-02-28T10:38:21;112171.53;;;-144.33;35.63
19843;BME280;10082;51.038;6.992;2023-02-28T10:40:49;112171.53;;;-144.33;35.03
19843;BME280;10082;51.038;6.992;2023-02-28T10:43:22;112171.53;;;-144.33;35.39
19843;BME280;10082;51.038;6.992;2023-02-28T10:45:57;112171.53;;;-144.33;35.40
19843;BME280;10082;51.038;6.992;2023-02-28T10:48:37;112171.53;;;-144.33;36.21
19843;BME280;10082;51.038;6.992;2023-02-28T10:51:06;112171.53;;;-144.33;37.15
19843;BME280;10082;51.038;6.992;2023-02-28T10:53:39;112171.53;;;-144.33;37.72
19843;BME280;10082;51.038;6.992;2023-02-28T10:56:16;112171.53;;;-144.33;37.79
19843;BME280;10082;51.038;6.992;2023-02-28T10:58:53;112171.53;;;-144.33;38.10
19843;BME280;10082;51.038;6.992;2023-02-28T11:01:23;112171.53;;;-144.33;38.73
19843;BME280;10082;51.038;6.992;2023-02-28T11:03:52;112171.53;;;-144.33;38.08
19843;BME280;10082;51.038;6.992;2023-02-28T11:06:20;112171.53;;;-144.33;38.22
19843;BME280;10082;51.038;6.992;2023-02-28T11:08:52;112171.53;;;-144.33;38.45
19843;BME280;10082;51.038;6.992;2023-02-28T11:11:21;112171.53;;;-144.33;38.06
19843;BME280;10082;51.038;6.992;2023-02-28T11:13:51;112171.53;;;-144.33;38.92
19843;BME280;10082;51.038;6.992;2023-02-28T11:16:20;112171.53;;;-144.33;39.26
19843;BME280;10082;51.038;6.992;2023-02-28T11:18:50;112171.53;;;-144.33;39.09
19843;BME280;10082;51.038;6.992;2023-02-28T11:21:24;112171.53;;;-144.33;38.79
19843;BME280;10082;51.038;6.992;2023-02-28T11:24:00;112171.53;;;-144.33;39.73
19843;BME280;10082;51.038;6.992;2023-02-28T11:26:37;112171.53;;;-144.33;39.37
19843;BME280;10082;51.038;6.992;2023-02-28T11:29:20;112171.53;;;-144.33;40.04
19843;BME280;10082;51.038;6.992;2023-02-28T11:32:04;112171.53;;;-144.33;40.64
19843;BME280;10082;51.038;6.992;2023-02-28T11:34:35;112171.53;;;-144.33;40.71
19843;BME280;10082;51.038;6.992;2023-02-28T11:37:04;112171.53;;;-144.33;41.32
19843;BME280;10082;51.038;6.992;2023-02-28T11:39:45;112171.53;;;-144.33;41.91
19843;BME280;10082;51.038;6.992;2023-02-28T11:45:24;112171.53;;;-144.33;42.15
19843;BME280;10082;51.038;6.992;2023-02-28T11:48:02;112171.53;;;-144.33;42.04
19843;BME280;10082;51.038;6.992;2023-02-28T11:50:42;112171.53;;;-144.33;42.41
19843;BME280;10082;51.038;6.992;2023-02-28T11:53:19;112171.53;;;-144.33;41.92
19843;BME280;10082;51.038;6.992;2023-02-28T11:55:54;112171.53;;;-144.33;41.91
19843;BME280;10082;51.038;6.992;2023-02-28T11:58:35;112171.53;;;-144.33;41.26
19843;BME280;10082;51.038;6.992;2023-02-28T12:01:15;112171.53;;;-144.33;41.33
19843;BME280;10082;51.038;6.992;2023-02-28T12:03:53;112171.53;;;-144.33;41.38
19843;BME280;10082;51.038;6.992;2023-02-28T12:06:28;112171.53;;;-144.33;40.99
19843;BME280;10082;51.038;6.992;2023-02-28T12:09:08;112171.53;;;-144.33;41.16
19843;BME280;10082;51.038;6.992;2023-02-28T12:11:48;112171.53;;;-144.33;41.15
19843;BME280;10082;51.038;6.992;2023-02-28T12:14:30;112171.53;;;-144.33;41.26
19843;BME280;10082;51.038;6.992;2023-02-28T12:17:19;112171.53;;;-144.33;40.91
19843;BME280;10082;51.038;6.992;2023-02-28T12:19:53;112171.53;;;-144.33;41.36
19843;BME280;10082;51.038;6.992;2023-02-28T12:22:30;112171.53;;;-144.33;41.24
19843;BME280;10082;51.038;6.992;2023-02-28T12:25:24;112171.53;;;-144.33;40.67
19843;BME280;10082;51.038;6.992;2023-02-28T12:27:57;112171.53;;;-144.33;41.45
19843;BME280;10082;51.038;6.992;2023-02-28T12:30:27;112171.53;;;-144.33;41.48
19843;BME280;10082;51.038;6.992;2023-02-28T12:33:00;112171.53;;;-144.33;41.38
19843;BME280;10082;51.038;6.992;2023-02-28T12:35:33;112171.53;;;-144.33;41.63
19843;BME280;10082;51.038;6.992;2023-02-28T12:38:04;112171.53;;;-144.33;41.52
19843;BME280;10082;51.038;6.992;2023-02-28T12:40:42;112171.53;;;-144.33;40.84
19843;BME280;10082;51.038;6.992;2023-02-28T12:43:13;112171.53;;;-144.33;41.14
19843;BME280;10082;51.038;6.992;2023-02-28T12:45:44;112171.53;;;-144.33;41.19
19843;BME280;10082;51.038;6.992;2023-02-28T12:48:16;112171.53;;;-144.33;41.33
19843;BME280;10082;51.038;6.992;2023-02-28T12:50:53;112171.53;;;-144.33;41.11